sensor_id;sensor_type;location;lat;lon;timestamp;pressure;altitude;pressure_sealevel;temperature;humidity
16525;BME280;8375;33.594;-117.718;2023-08-07T00:00:33;100115.31;;;25.43;64.97
16525;BME280;8375;33.594;-117.718;2023-08-07T00:03:01;100116.19;;;25.37;65.53
16525;BME280;8375;33.594;-117.718;2023-08-07T00:05:30;100109.69;;;25.33;66.14
16525;BME280;8375;33.594;-117.718;2023-08-07T00:07:59;100112.84;;;25.67;65.19
16525;BME280;8375;33.594;-117.718;2023-08-07T00:10:27;100104.47;;;25.45;66.01
16525;BME280;8375;33.594;-117.718;2023-08-07T00:12:56;100100.56;;;25.22;67.68
16525;BME280;8375;33.594;-117.718;2023-08-07T00:15:25;100101.75;;;25.26;67.22
16525;BME280;8375;33.594;-117.718;2023-08-07T00:17:55;100103.56;;;25.07;66.98
16525;BME280;8375;33.594;-117.718;2023-08-07T00:20:24;100112.34;;;24.75;68.02
16525;BME280;8375;33.594;-117.718;2023-08-07T00:22:53;100105.63;;;24.73;68.72
16525;BME280;8375;33.594;-117.718;2023-08-07T00:25:21;100107.63;;;24.78;68.99
16525;BME280;8375;33.594;-117.718;2023-08-07T00:27:50;100099.03;;;24.82;69.26
16525;BME280;8375;33.594;-117.718;2023-08-07T00:30:19;100105.22;;;25.01;67.77
16525;BME280;8375;33.594;-117.718;2023-08-07T00:32:47;100109.34;;;25.23;66.68
16525;BME280;8375;33.594;-117.718;2023-08-07T00:35:18;100102.41;;;25.47;66.46
16525;BME280;8375;33.594;-117.718;2023-08-07T00:37:46;100114.47;;;24.92;67.19
16525;BME280;8375;33.594;-117.718;2023-08-07T00:40:16;100104.09;;;24.90;67.99
16525;BME280;8375;33.594;-117.718;2023-08-07T00:42:45;100106.47;;;24.67;68.67
16525;BME280;8375;33.594;-117.718;2023-08-07T00:45:14;100102.59;;;24.30;70.31
16525;BME280;8375;33.594;-117.718;2023-08-07T00:47:44;100108.13;;;24.15;71.14
16525;BME280;8375;33.594;-117.718;2023-08-07T00:50:13;100107.59;;;23.86;72.29
16525;BME280;8375;33.594;-117.718;2023-08-07T00:52:43;100099.91;;;23.65;73.08
16525;BME280;8375;33.594;-117.718;2023-08-07T00:55:12;100107.66;;;23.39;74.27
16525;BME280;8375;33.594;-117.718;2023-08-07T00:57:41;100111.13;;;23.47;75.17
16525;BME280;8375;33.594;-117.718;2023-08-07T01:00:11;100104.09;;;24.13;72.81
16525;BME280;8375;33.594;-117.718;2023-08-07T01:02:42;100103.84;;;24.21;71.88
16525;BME280;8375;33.594;-117.718;2023-08-07T01:05:13;100112.88;;;24.00;72.55
16525;BME280;8375;33.594;-117.718;2023-08-07T01:07:46;100106.56;;;24.08;72.66
16525;BME280;8375;33.594;-117.718;2023-08-07T01:10:15;100112.72;;;23.88;73.20
16525;BME280;8375;33.594;-117.718;2023-08-07T01:12:48;100116.41;;;23.67;74.01
16525;BME280;8375;33.594;-117.718;2023-08-07T01:15:24;100113.19;;;23.38;75.35
16525;BME280;8375;33.594;-117.718;2023-08-07T01:17:58;100121.13;;;23.24;75.97
16525;BME280;8375;33.594;-117.718;2023-08-07T01:20:27;100115.41;;;23.34;75.87
16525;BME280;8375;33.594;-117.718;2023-08-07T01:22:58;100110.31;;;23.46;74.95
16525;BME280;8375;33.594;-117.718;2023-08-07T01:25:26;100109.72;;;23.31;75.26
16525;BME280;8375;33.594;-117.718;2023-08-07T01:28:01;100102.56;;;22.84;77.47
16525;BME280;8375;33.594;-117.718;2023-08-07T01:30:36;100105.97;;;22.71;78.59
16525;BME280;8375;33.594;-117.718;2023-08-07T01:33:10;100104.97;;;22.79;78.24
16525;BME280;8375;33.594;-117.718;2023-08-07T01:35:43;100119.59;;;22.61;79.03
16525;BME280;8375;33.594;-117.718;2023-08-07T01:38:15;100110.63;;;22.49;80.25
16525;BME280;8375;33.594;-117.718;2023-08-07T01:40:44;100114.31;;;22.68;79.75
16525;BME280;8375;33.594;-117.718;2023-08-07T01:43:14;100111.25;;;22.64;79.41
16525;BME280;8375;33.594;-117.718;2023-08-07T01:45:45;100116.94;;;22.61;79.33
16525;BME280;8375;33.594;-117.718;2023-08-07T01:48:14;100119.56;;;22.54;79.46
16525;BME280;8375;33.594;-117.718;2023-08-07T01:50:42;100116.91;;;22.48;79.69
16525;BME280;8375;33.594;-117.718;2023-08-07T01:53:13;100116.75;;;22.14;81.85
16525;BME280;8375;33.594;-117.718;2023-08-07T01:55:41;100117.69;;;22.00;82.69
16525;BME280;8375;33.594;-117.718;2023-08-07T01:58:10;100116.78;;;22.21;82.09
16525;BME280;8375;33.594;-117.718;2023-08-07T02:00:39;100123.69;;;22.22;81.88
16525;BME280;8375;33.594;-117.718;2023-08-07T02:03:07;100131.28;;;21.96;82.79
16525;BME280;8375;33.594;-117.718;2023-08-07T02:05:36;100128.53;;;22.11;83.09
16525;BME280;8375;33.594;-117.718;2023-08-07T02:08:05;100129.78;;;22.16;82.50
16525;BME280;8375;33.594;-117.718;2023-08-07T02:10:35;100130.81;;;22.21;82.41
16525;BME280;8375;33.594;-117.718;2023-08-07T02:13:04;100131.13;;;21.98;83.03
16525;BME280;8375;33.594;-117.718;2023-08-07T02:15:32;100131.19;;;21.76;84.56
16525;BME280;8375;33.594;-117.718;2023-08-07T02:18:01;100122.72;;;21.88;84.42
16525;BME280;8375;33.594;-117.718;2023-08-07T02:20:30;100138.19;;;21.91;84.03
16525;BME280;8375;33.594;-117.718;2023-08-07T02:22:58;100136.88;;;21.80;84.71
16525;BME280;8375;33.594;-117.718;2023-08-07T02:25:27;100139.53;;;21.80;84.79
16525;BME280;8375;33.594;-117.718;2023-08-07T02:27:57;100139.16;;;21.61;85.68
16525;BME280;8375;33.594;-117.718;2023-08-07T02:30:26;100140.50;;;21.72;85.39
16525;BME280;8375;33.594;-117.718;2023-08-07T02:32:55;100139.13;;;21.54;86.07
16525;BME280;8375;33.594;-117.718;2023-08-07T02:35:23;100136.91;;;21.58;86.42
16525;BME280;8375;33.594;-117.718;2023-08-07T02:37:52;100133.34;;;21.66;85.87
16525;BME280;8375;33.594;-117.718;2023-08-07T02:40:21;100138.38;;;21.61;85.77
16525;BME280;8375;33.594;-117.718;2023-08-07T02:42:49;100139.13;;;21.54;85.99
16525;BME280;8375;33.594;-117.718;2023-08-07T02:45:20;100138.94;;;21.28;87.30
16525;BME280;8375;33.594;-117.718;2023-08-07T02:47:48;100146.31;;;20.95;89.33
16525;BME280;8375;33.594;-117.718;2023-08-07T02:50:17;100149.34;;;20.92;89.85
16525;BME280;8375;33.594;-117.718;2023-08-07T02:52:46;100148.41;;;20.78;90.43
16525;BME280;8375;33.594;-117.718;2023-08-07T02:55:14;100141.94;;;20.66;91.47
16525;BME280;8375;33.594;-117.718;2023-08-07T02:57:43;100154.50;;;20.64;91.91
16525;BME280;8375;33.594;-117.718;2023-08-07T03:00:12;100158.41;;;20.53;92.48
16525;BME280;8375;33.594;-117.718;2023-08-07T03:02:43;100169.84;;;20.60;92.33
16525;BME280;8375;33.594;-117.718;2023-08-07T03:05:11;100164.56;;;20.60;91.97
16525;BME280;8375;33.594;-117.718;2023-08-07T03:07:40;100171.84;;;20.58;92.41
16525;BME280;8375;33.594;-117.718;2023-08-07T03:10:09;100177.13;;;20.58;92.22
16525;BME280;8375;33.594;-117.718;2023-08-07T03:12:38;100175.50;;;20.57;92.08
16525;BME280;8375;33.594;-117.718;2023-08-07T03:15:07;100180.16;;;20.40;92.86
16525;BME280;8375;33.594;-117.718;2023-08-07T03:17:36;100180.63;;;20.14;94.34
16525;BME280;8375;33.594;-117.718;2023-08-07T03:20:07;100183.03;;;19.85;96.64
16525;BME280;8375;33.594;-117.718;2023-08-07T03:22:36;100187.47;;;19.85;97.04
16525;BME280;8375;33.594;-117.718;2023-08-07T03:25:05;100195.16;;;19.95;96.88
16525;BME280;8375;33.594;-117.718;2023-08-07T03:27:34;100201.25;;;20.10;95.82
16525;BME280;8375;33.594;-117.718;2023-08-07T03:30:03;100207.97;;;19.98;96.16
16525;BME280;8375;33.594;-117.718;2023-08-07T03:32:32;100213.81;;;19.85;96.57
16525;BME280;8375;33.594;-117.718;2023-08-07T03:35:00;100224.41;;;19.76;97.58
16525;BME280;8375;33.594;-117.718;2023-08-07T03:37:31;100223.59;;;19.76;97.58
16525;BME280;8375;33.594;-117.718;2023-08-07T03:39:59;100226.97;;;19.85;97.07
16525;BME280;8375;33.594;-117.718;2023-08-07T03:42:28;100225.53;;;19.82;97.27
16525;BME280;8375;33.594;-117.718;2023-08-07T03:44:56;100222.03;;;19.67;98.17
16525;BME280;8375;33.594;-117.718;2023-08-07T03:47:26;100236.97;;;19.51;99.00
16525;BME280;8375;33.594;-117.718;2023-08-07T03:49:54;100235.78;;;19.54;99.19
16525;BME280;8375;33.594;-117.718;2023-08-07T03:52:23;100246.97;;;19.56;99.53
16525;BME280;8375;33.594;-117.718;2023-08-07T03:54:53;100253.28;;;19.46;99.94
16525;BME280;8375;33.594;-117.718;2023-08-07T03:57:22;100249.75;;;19.31;100.00
16525;BME280;8375;33.594;-117.718;2023-08-07T03:59:51;100251.38;;;19.09;100.00
16525;BME280;8375;33.594;-117.718;2023-08-07T04:02:20;100256.53;;;18.85;100.00
16525;BME280;8375;33.594;-117.718;2023-08-07T04:04:49;100260.91;;;18.61;100.00
16525;BME280;8375;33.594;-117.718;2023-08-07T04:07:18;100263.25;;;18.40;100.00
16525;BME280;8375;33.594;-117.718;2023-08-07T04:09:47;100264.41;;;18.37;100.00
16525;BME280;8375;33.594;-117.718;2023-08-07T04:12:17;100264.06;;;18.40;100.00
16525;BME280;8375;33.594;-117.718;2023-08-07T04:14:45;100267.16;;;18.60;100.00
16525;BME280;8375;33.594;-117.718;2023-08-07T04:17:14;100272.53;;;18.75;100.00
16525;BME280;8375;33.594;-117.718;2023-08-07T04:19:43;100275.56;;;18.96;100.00
16525;BME280;8375;33.594;-117.718;2023-08-07T04:22:11;100278.63;;;19.16;100.00
16525;BME280;8375;33.594;-117.718;2023-08-07T04:24:40;100274.91;;;19.33;100.00
16525;BME280;8375;33.594;-117.718;2023-08-07T04:27:09;100270.81;;;19.31;100.00
16525;BME280;8375;33.594;-117.718;2023-08-07T04:29:40;100279.44;;;19.48;100.00
16525;BME280;8375;33.594;-117.718;2023-08-07T04:32:08;100266.78;;;19.43;100.00
16525;BME280;8375;33.594;-117.718;2023-08-07T04:34:37;100282.06;;;19.48;100.00
16525;BME280;8375;33.594;-117.718;2023-08-07T04:37:06;100273.47;;;19.54;100.00
16525;BME280;8375;33.594;-117.718;2023-08-07T04:39:35;100280.78;;;19.67;100.00
16525;BME280;8375;33.594;-117.718;2023-08-07T04:42:04;100275.66;;;19.42;100.00
16525;BME280;8375;33.594;-117.718;2023-08-07T04:44:33;100279.06;;;19.28;100.00
16525;BME280;8375;33.594;-117.718;2023-08-07T04:47:04;100284.41;;;19.43;100.00
16525;BME280;8375;33.594;-117.718;2023-08-07T04:49:33;100296.19;;;19.24;100.00
16525;BME280;8375;33.594;-117.718;2023-08-07T04:52:02;100286.47;;;19.24;100.00
16525;BME280;8375;33.594;-117.718;2023-08-07T04:54:31;100296.81;;;19.26;100.00
16525;BME280;8375;33.594;-117.718;2023-08-07T04:56:59;100296.78;;;19.34;100.00
16525;BME280;8375;33.594;-117.718;2023-08-07T04:59:29;100289.41;;;19.29;100.00
16525;BME280;8375;33.594;-117.718;2023-08-07T05:01:58;100296.97;;;19.32;100.00
16525;BME280;8375;33.594;-117.718;2023-08-07T05:04:28;100299.38;;;19.42;100.00
16525;BME280;8375;33.594;-117.718;2023-08-07T05:06:57;100301.84;;;19.44;100.00
16525;BME280;8375;33.594;-117.718;2023-08-07T05:09:26;100298.81;;;19.55;100.00
16525;BME280;8375;33.594;-117.718;2023-08-07T05:11:54;100305.81;;;19.63;100.00
16525;BME280;8375;33.594;-117.718;2023-08-07T05:14:23;100310.78;;;19.58;100.00
16525;BME280;8375;33.594;-117.718;2023-08-07T05:16:52;100303.22;;;19.55;100.00
16525;BME280;8375;33.594;-117.718;2023-08-07T05:19:21;100313.88;;;19.38;100.00
16525;BME280;8375;33.594;-117.718;2023-08-07T05:21:51;100319.56;;;19.18;100.00
16525;BME280;8375;33.594;-117.718;2023-08-07T05:24:20;100326.03;;;19.08;100.00
16525;BME280;8375;33.594;-117.718;2023-08-07T05:26:49;100317.53;;;18.97;100.00
16525;BME280;8375;33.594;-117.718;2023-08-07T05:29:17;100313.72;;;18.91;100.00
16525;BME280;8375;33.594;-117.718;2023-08-07T05:31:46;100317.69;;;18.87;100.00
16525;BME280;8375;33.594;-117.718;2023-08-07T05:34:14;100325.94;;;18.76;100.00
16525;BME280;8375;33.594;-117.718;2023-08-07T05:36:43;100322.66;;;18.74;100.00
16525;BME280;8375;33.594;-117.718;2023-08-07T05:39:13;100320.84;;;18.74;100.00
16525;BME280;8375;33.594;-117.718;2023-08-07T05:41:42;100320.81;;;18.91;100.00
16525;BME280;8375;33.594;-117.718;2023-08-07T05:44:11;100319.50;;;18.87;100.00
16525;BME280;8375;33.594;-117.718;2023-08-07T05:46:39;100320.78;;;19.08;100.00
16525;BME280;8375;33.594;-117.718;2023-08-07T05:49:08;100326.53;;;19.03;100.00
16525;BME280;8375;33.594;-117.718;2023-08-07T05:51:37;100325.59;;;18.79;100.00
16525;BME280;8375;33.594;-117.718;2023-08-07T05:54:05;100332.88;;;18.60;100.00
16525;BME280;8375;33.594;-117.718;2023-08-07T05:56:37;100332.72;;;18.37;100.00
16525;BME280;8375;33.594;-117.718;2023-08-07T05:59:06;100331.25;;;18.43;100.00
16525;BME280;8375;33.594;-117.718;2023-08-07T06:01:34;100335.34;;;18.45;100.00
16525;BME280;8375;33.594;-117.718;2023-08-07T06:04:03;100332.25;;;18.42;100.00
16525;BME280;8375;33.594;-117.718;2023-08-07T06:06:32;100336.97;;;18.55;100.00
16525;BME280;8375;33.594;-117.718;2023-08-07T06:09:02;100343.38;;;18.69;100.00
16525;BME280;8375;33.594;-117.718;2023-08-07T06:11:31;100345.34;;;18.58;100.00
16525;BME280;8375;33.594;-117.718;2023-08-07T06:14:01;100340.28;;;18.57;100.00
16525;BME280;8375;33.594;-117.718;2023-08-07T06:16:30;100348.66;;;18.44;100.00
16525;BME280;8375;33.594;-117.718;2023-08-07T06:18:58;100342.56;;;18.52;100.00
16525;BME280;8375;33.594;-117.718;2023-08-07T06:21:27;100348.97;;;18.66;100.00
16525;BME280;8375;33.594;-117.718;2023-08-07T06:23:56;100348.78;;;18.84;100.00
16525;BME280;8375;33.594;-117.718;2023-08-07T06:26:25;100353.50;;;18.97;100.00
16525;BME280;8375;33.594;-117.718;2023-08-07T06:28:53;100349.84;;;19.06;100.00
16525;BME280;8375;33.594;-117.718;2023-08-07T06:31:24;100355.09;;;19.14;100.00
16525;BME280;8375;33.594;-117.718;2023-08-07T06:33:52;100353.72;;;19.27;100.00
16525;BME280;8375;33.594;-117.718;2023-08-07T06:36:21;100348.75;;;19.32;100.00
16525;BME280;8375;33.594;-117.718;2023-08-07T06:38:50;100343.81;;;19.37;100.00
16525;BME280;8375;33.594;-117.718;2023-08-07T06:41:18;100343.81;;;19.37;100.00
16525;BME280;8375;33.594;-117.718;2023-08-07T06:43:47;100355.25;;;19.21;100.00
16525;BME280;8375;33.594;-117.718;2023-08-07T06:46:16;100351.19;;;19.02;100.00
16525;BME280;8375;33.594;-117.718;2023-08-07T06:48:46;100350.25;;;18.78;100.00
16525;BME280;8375;33.594;-117.718;2023-08-07T06:51:15;100351.75;;;18.72;100.00
16525;BME280;8375;33.594;-117.718;2023-08-07T06:53:43;100349.44;;;18.77;100.00
16525;BME280;8375;33.594;-117.718;2023-08-07T06:56:12;100348.13;;;18.73;100.00
16525;BME280;8375;33.594;-117.718;2023-08-07T06:58:41;100346.81;;;18.77;100.00
16525;BME280;8375;33.594;-117.718;2023-08-07T07:01:09;100346.78;;;18.86;100.00
16525;BME280;8375;33.594;-117.718;2023-08-07T07:03:38;100345.28;;;18.91;100.00
16525;BME280;8375;33.594;-117.718;2023-08-07T07:06:09;100348.25;;;18.97;100.00
16525;BME280;8375;33.594;-117.718;2023-08-07T07:08:37;100349.41;;;19.02;100.00
16525;BME280;8375;33.594;-117.718;2023-08-07T07:11:06;100352.50;;;19.06;100.00
16525;BME280;8375;33.594;-117.718;2023-08-07T07:13:35;100346.88;;;19.09;100.00
16525;BME280;8375;33.594;-117.718;2023-08-07T07:16:04;100353.97;;;19.09;100.00
16525;BME280;8375;33.594;-117.718;2023-08-07T07:18:32;100342.81;;;19.07;100.00
16525;BME280;8375;33.594;-117.718;2023-08-07T07:21:01;100352.31;;;19.16;100.00
16525;BME280;8375;33.594;-117.718;2023-08-07T07:23:32;100348.53;;;19.10;100.00
16525;BME280;8375;33.594;-117.718;2023-08-07T07:26:00;100344.75;;;19.13;100.00
16525;BME280;8375;33.594;-117.718;2023-08-07T07:28:29;100351.63;;;19.22;100.00
16525;BME280;8375;33.594;-117.718;2023-08-07T07:30:58;100353.72;;;19.27;100.00
16525;BME280;8375;33.594;-117.718;2023-08-07T07:33:27;100347.13;;;19.31;100.00
16525;BME280;8375;33.594;-117.718;2023-08-07T07:35:56;100345.09;;;19.41;99.34
16525;BME280;8375;33.594;-117.718;2023-08-07T07:38:24;100350.03;;;19.44;98.83
16525;BME280;8375;33.594;-117.718;2023-08-07T07:40:55;100350.22;;;19.43;98.64
16525;BME280;8375;33.594;-117.718;2023-08-07T07:43:24;100344.84;;;19.28;98.54
16525;BME280;8375;33.594;-117.718;2023-08-07T07:45:52;100338.63;;;19.20;99.07
16525;BME280;8375;33.594;-117.718;2023-08-07T07:48:21;100343.13;;;19.12;99.68
16525;BME280;8375;33.594;-117.718;2023-08-07T07:50:50;100347.69;;;19.18;100.00
16525;BME280;8375;33.594;-117.718;2023-08-07T07:53:20;100345.66;;;19.28;100.00
16525;BME280;8375;33.594;-117.718;2023-08-07T07:55:48;100352.22;;;19.32;99.68
16525;BME280;8375;33.594;-117.718;2023-08-07T07:58:19;100343.19;;;19.27;99.10
16525;BME280;8375;33.594;-117.718;2023-08-07T08:00:47;100349.78;;;19.23;98.98
16525;BME280;8375;33.594;-117.718;2023-08-07T08:03:18;100346.16;;;19.24;99.33
16525;BME280;8375;33.594;-117.718;2023-08-07T08:05:50;100344.91;;;19.11;99.22
16525;BME280;8375;33.594;-117.718;2023-08-07T08:08:19;100337.06;;;19.03;99.60
16525;BME280;8375;33.594;-117.718;2023-08-07T08:10:47;100341.53;;;18.86;100.00
16525;BME280;8375;33.594;-117.718;2023-08-07T08:13:19;100335.00;;;18.73;100.00
16525;BME280;8375;33.594;-117.718;2023-08-07T08:15:48;100331.53;;;18.73;100.00
16525;BME280;8375;33.594;-117.718;2023-08-07T08:18:18;100334.69;;;18.68;100.00
16525;BME280;8375;33.594;-117.718;2023-08-07T08:20:46;100322.19;;;18.70;100.00
16525;BME280;8375;33.594;-117.718;2023-08-07T08:23:15;100326.13;;;18.74;100.00
16525;BME280;8375;33.594;-117.718;2023-08-07T08:25:44;100321.66;;;18.75;100.00
16525;BME280;8375;33.594;-117.718;2023-08-07T08:28:12;100319.22;;;18.73;100.00
16525;BME280;8375;33.594;-117.718;2023-08-07T08:30:43;100313.13;;;18.73;100.00
16525;BME280;8375;33.594;-117.718;2023-08-07T08:33:12;100310.16;;;18.76;100.00
16525;BME280;8375;33.594;-117.718;2023-08-07T08:35:41;100308.50;;;18.75;100.00
16525;BME280;8375;33.594;-117.718;2023-08-07T08:38:09;100309.19;;;18.69;100.00
16525;BME280;8375;33.594;-117.718;2023-08-07T08:40:39;100293.44;;;18.60;100.00
16525;BME280;8375;33.594;-117.718;2023-08-07T08:43:08;100300.03;;;18.56;100.00
16525;BME280;8375;33.594;-117.718;2023-08-07T08:45:38;100293.78;;;18.57;100.00
16525;BME280;8375;33.594;-117.718;2023-08-07T08:48:16;100293.44;;;18.60;100.00
16525;BME280;8375;33.594;-117.718;2023-08-07T08:50:50;100287.38;;;18.60;100.00
16525;BME280;8375;33.594;-117.718;2023-08-07T08:53:21;100292.78;;;18.58;100.00
16525;BME280;8375;33.594;-117.718;2023-08-07T08:55:50;100280.94;;;18.62;100.00
16525;BME280;8375;33.594;-117.718;2023-08-07T08:58:20;100275.53;;;18.64;100.00
16525;BME280;8375;33.594;-117.718;2023-08-07T09:00:50;100269.78;;;18.60;100.00
16525;BME280;8375;33.594;-117.718;2023-08-07T09:03:21;100262.22;;;18.57;100.00
16525;BME280;8375;33.594;-117.718;2023-08-07T09:05:50;100265.19;;;18.54;100.00
16525;BME280;8375;33.594;-117.718;2023-08-07T09:08:22;100268.13;;;18.59;100.00
16525;BME280;8375;33.594;-117.718;2023-08-07T09:10:53;100255.50;;;18.63;100.00
16525;BME280;8375;33.594;-117.718;2023-08-07T09:13:23;100255.84;;;18.60;100.00
16525;BME280;8375;33.594;-117.718;2023-08-07T09:15:52;100257.63;;;18.59;100.00
16525;BME280;8375;33.594;-117.718;2023-08-07T09:18:23;100261.25;;;18.58;100.00
16525;BME280;8375;33.594;-117.718;2023-08-07T09:20:52;100249.28;;;18.56;100.00
16525;BME280;8375;33.594;-117.718;2023-08-07T09:23:24;100257.63;;;18.59;100.00
16525;BME280;8375;33.594;-117.718;2023-08-07T09:26:00;100260.25;;;18.59;100.00
16525;BME280;8375;33.594;-117.718;2023-08-07T09:28:29;100251.38;;;18.60;100.00
16525;BME280;8375;33.594;-117.718;2023-08-07T09:30:58;100244.63;;;18.66;100.00
16525;BME280;8375;33.594;-117.718;2023-08-07T09:33:30;100248.91;;;18.67;100.00
16525;BME280;8375;33.594;-117.718;2023-08-07T09:36:00;100247.41;;;18.65;100.00
16525;BME280;8375;33.594;-117.718;2023-08-07T09:38:29;100243.81;;;18.66;100.00
16525;BME280;8375;33.594;-117.718;2023-08-07T09:40:59;100244.78;;;18.65;100.00
16525;BME280;8375;33.594;-117.718;2023-08-07T09:43:29;100239.88;;;18.61;100.00
16525;BME280;8375;33.594;-117.718;2023-08-07T09:46:04;100242.00;;;18.66;100.00
16525;BME280;8375;33.594;-117.718;2023-08-07T09:48:39;100242.34;;;18.63;100.00
16525;BME280;8375;33.594;-117.718;2023-08-07T09:51:08;100245.13;;;18.61;100.00
16525;BME280;8375;33.594;-117.718;2023-08-07T09:53:37;100240.88;;;18.60;100.00
16525;BME280;8375;33.594;-117.718;2023-08-07T09:56:06;100238.56;;;18.57;100.00
16525;BME280;8375;33.594;-117.718;2023-08-07T09:58:35;100244.47;;;18.59;100.00
16525;BME280;8375;33.594;-117.718;2023-08-07T10:01:04;100248.94;;;18.59;100.00
16525;BME280;8375;33.594;-117.718;2023-08-07T10:03:35;100245.31;;;18.60;100.00
16525;BME280;8375;33.594;-117.718;2023-08-07T10:06:04;100242.50;;;18.61;100.00
16525;BME280;8375;33.594;-117.718;2023-08-07T10:08:34;100241.06;;;18.59;100.00
16525;BME280;8375;33.594;-117.718;2023-08-07T10:11:05;100238.22;;;18.60;100.00
16525;BME280;8375;33.594;-117.718;2023-08-07T10:13:35;100231.34;;;18.59;100.00
16525;BME280;8375;33.594;-117.718;2023-08-07T10:16:04;100236.44;;;18.53;100.00
16525;BME280;8375;33.594;-117.718;2023-08-07T10:18:34;100228.09;;;18.49;100.00
16525;BME280;8375;33.594;-117.718;2023-08-07T10:21:05;100228.09;;;18.49;100.00
16525;BME280;8375;33.594;-117.718;2023-08-07T10:23:35;100223.31;;;18.44;100.00
16525;BME280;8375;33.594;-117.718;2023-08-07T10:26:05;100223.97;;;18.46;100.00
16525;BME280;8375;33.594;-117.718;2023-08-07T10:28:37;100218.72;;;18.46;100.00
16525;BME280;8375;33.594;-117.718;2023-08-07T10:31:07;100214.75;;;18.51;100.00
16525;BME280;8375;33.594;-117.718;2023-08-07T10:33:37;100208.22;;;18.46;100.00
16525;BME280;8375;33.594;-117.718;2023-08-07T10:36:09;100212.31;;;18.49;100.00
16525;BME280;8375;33.594;-117.718;2023-08-07T10:38:38;100212.63;;;18.54;100.00
16525;BME280;8375;33.594;-117.718;2023-08-07T10:41:08;100209.69;;;18.49;100.00
16525;BME280;8375;33.594;-117.718;2023-08-07T10:43:40;100205.59;;;18.46;100.00
16525;BME280;8375;33.594;-117.718;2023-08-07T10:46:10;100207.75;;;18.43;100.00
16525;BME280;8375;33.594;-117.718;2023-08-07T10:48:42;100203.81;;;18.39;100.00
16525;BME280;8375;33.594;-117.718;2023-08-07T10:51:13;100203.63;;;18.40;100.00
16525;BME280;8375;33.594;-117.718;2023-08-07T10:53:43;100200.84;;;18.42;100.00
16525;BME280;8375;33.594;-117.718;2023-08-07T10:56:16;100200.50;;;18.45;100.00
16525;BME280;8375;33.594;-117.718;2023-08-07T10:58:50;100195.94;;;18.39;100.00
16525;BME280;8375;33.594;-117.718;2023-08-07T11:01:21;100197.72;;;18.38;100.00
16525;BME280;8375;33.594;-117.718;2023-08-07T11:03:53;100196.41;;;18.42;100.00
16525;BME280;8375;33.594;-117.718;2023-08-07T11:06:24;100203.59;;;18.48;100.00
16525;BME280;8375;33.594;-117.718;2023-08-07T11:08:54;100205.75;;;18.45;100.00
16525;BME280;8375;33.594;-117.718;2023-08-07T11:11:22;100207.75;;;18.43;100.00
16525;BME280;8375;33.594;-117.718;2023-08-07T11:13:51;100214.31;;;18.39;100.00
16525;BME280;8375;33.594;-117.718;2023-08-07T11:16:20;100198.88;;;18.44;100.00
16525;BME280;8375;33.594;-117.718;2023-08-07T11:18:51;100199.69;;;18.44;100.00
16525;BME280;8375;33.594;-117.718;2023-08-07T11:21:20;100206.41;;;18.47;100.00
16525;BME280;8375;33.594;-117.718;2023-08-07T11:23:48;100201.63;;;18.51;100.00
16525;BME280;8375;33.594;-117.718;2023-08-07T11:26:17;100213.31;;;18.48;100.00
16525;BME280;8375;33.594;-117.718;2023-08-07T11:28:48;100208.38;;;18.45;100.00
16525;BME280;8375;33.594;-117.718;2023-08-07T11:31:17;100205.09;;;18.51;100.00
16525;BME280;8375;33.594;-117.718;2023-08-07T11:33:46;100211.00;;;18.53;100.00
16525;BME280;8375;33.594;-117.718;2023-08-07T11:36:16;100207.56;;;18.44;100.00
16525;BME280;8375;33.594;-117.718;2023-08-07T11:38:45;100213.00;;;18.43;100.00
16525;BME280;8375;33.594;-117.718;2023-08-07T11:41:15;100210.03;;;18.46;100.00
16525;BME280;8375;33.594;-117.718;2023-08-07T11:43:44;100210.69;;;18.48;100.00
16525;BME280;8375;33.594;-117.718;2023-08-07T11:46:14;100209.19;;;18.45;100.00
16525;BME280;8375;33.594;-117.718;2023-08-07T11:48:44;100207.22;;;18.47;100.00
16525;BME280;8375;33.594;-117.718;2023-08-07T11:51:13;100214.94;;;18.49;100.00
16525;BME280;8375;33.594;-117.718;2023-08-07T11:53:44;100211.66;;;18.47;100.00
16525;BME280;8375;33.594;-117.718;2023-08-07T11:56:13;100213.66;;;18.45;100.00
16525;BME280;8375;33.594;-117.718;2023-08-07T11:58:42;100206.91;;;18.42;100.00
16525;BME280;8375;33.594;-117.718;2023-08-07T12:01:13;100211.50;;;18.48;100.00
16525;BME280;8375;33.594;-117.718;2023-08-07T12:03:49;100206.88;;;18.51;100.00
16525;BME280;8375;33.594;-117.718;2023-08-07T12:06:18;100220.22;;;18.49;100.00
16525;BME280;8375;33.594;-117.718;2023-08-07T12:08:49;100224.97;;;18.45;100.00
16525;BME280;8375;33.594;-117.718;2023-08-07T12:11:19;100226.28;;;18.41;100.00
16525;BME280;8375;33.594;-117.718;2023-08-07T12:13:48;100220.56;;;18.38;100.00
16525;BME280;8375;33.594;-117.718;2023-08-07T12:16:32;100229.25;;;18.38;100.00
16525;BME280;8375;33.594;-117.718;2023-08-07T12:19:02;100228.59;;;18.36;100.00
16525;BME280;8375;33.594;-117.718;2023-08-07T12:21:31;100222.25;;;18.22;100.00
16525;BME280;8375;33.594;-117.718;2023-08-07T12:24:02;100236.72;;;18.18;100.00
16525;BME280;8375;33.594;-117.718;2023-08-07T12:26:31;100237.03;;;18.23;100.00
16525;BME280;8375;33.594;-117.718;2023-08-07T12:29:02;100232.75;;;18.22;100.00
16525;BME280;8375;33.594;-117.718;2023-08-07T12:31:31;100231.78;;;18.23;100.00
16525;BME280;8375;33.594;-117.718;2023-08-07T12:34:01;100241.59;;;18.29;100.00